Time;durP1;ratioP1;P1;durP2;ratioP2;P2;SDS_P1;SDS_P2;PMS_P1;PMS_P2;Temp;Humidity;BMP_temperature;BMP_pressure;BME280_temperature;BME280_humidity;BME280_pressure;Samples;Min_cycle;Max_cycle;Signal;HPM_P1;HPM_P2
2021/01/26 00:00:07;;;;;;;21.63;16.05;;;4.50;99.90;;;;;;2079452;28;20025;-73
2021/01/26 00:01:08;;;;;;;23.27;16.55;;;4.50;99.90;;;;;;2079626;28;20475;-75
2021/01/26 00:02:08;;;;;;;23.50;15.95;;;4.50;99.90;;;;;;2079433;28;20022;-74
2021/01/26 00:03:09;;;;;;;23.20;15.82;;;4.50;99.90;;;;;;2079861;28;20033;-75
2021/01/26 00:04:09;;;;;;;19.48;14.45;;;4.50;99.90;;;;;;2070490;28;20487;-76
2021/01/26 00:05:11;;;;;;;21.35;16.10;;;4.50;99.90;;;;;;2070901;28;20110;-75
2021/01/26 00:06:13;;;;;;;22.27;16.23;;;4.50;99.90;;;;;;2079456;28;20026;-76
2021/01/26 00:07:13;;;;;;;20.58;15.93;;;4.50;99.90;;;;;;2078949;28;20029;-77
2021/01/26 00:08:14;;;;;;;25.17;16.33;;;4.50;99.90;;;;;;2078898;28;20092;-75
2021/01/26 00:09:15;;;;;;;23.38;15.82;;;4.50;99.90;;;;;;2071008;28;20037;-75
2021/01/26 00:10:15;;;;;;;21.83;16.58;;;4.50;99.90;;;;;;2070899;28;20105;-77
2021/01/26 00:11:16;;;;;;;23.75;16.27;;;4.50;99.90;;;;;;2079556;28;20036;-73
2021/01/26 00:12:16;;;;;;;21.67;16.90;;;4.50;99.90;;;;;;2079248;28;20041;-75
2021/01/26 00:13:19;;;;;;;26.83;17.50;;;4.50;99.90;;;;;;2079519;28;20029;-73
2021/01/26 00:14:20;;;;;;;26.15;16.42;;;4.50;99.90;;;;;;2070311;28;20767;-79
2021/01/26 00:15:20;;;;;;;23.13;16.38;;;4.50;99.90;;;;;;2070846;28;20056;-76
2021/01/26 00:16:21;;;;;;;23.55;16.95;;;4.50;99.90;;;;;;2070324;28;20029;-75
2021/01/26 00:17:22;;;;;;;25.77;16.23;;;4.50;99.90;;;;;;2079024;28;20384;-77
2021/01/26 00:18:22;;;;;;;26.95;17.67;;;4.60;99.90;;;;;;2070417;28;20029;-77
2021/01/26 00:19:23;;;;;;;22.70;16.58;;;4.60;99.90;;;;;;2070738;28;20121;-77
2021/01/26 00:20:23;;;;;;;26.80;16.98;;;4.60;99.90;;;;;;2079307;28;20021;-78
2021/01/26 00:21:24;;;;;;;23.58;16.15;;;4.60;99.90;;;;;;2070619;28;20061;-76
2021/01/26 00:22:25;;;;;;;26.13;17.67;;;4.60;99.90;;;;;;2070354;28;20543;-75
2021/01/26 00:23:25;;;;;;;25.38;16.92;;;4.60;99.90;;;;;;2070766;28;20556;-75
2021/01/26 00:24:26;;;;;;;24.38;16.95;;;4.60;99.90;;;;;;2070832;28;20022;-75
2021/01/26 00:25:29;;;;;;;26.85;17.67;;;4.60;99.90;;;;;;2070459;28;20394;-75
2021/01/26 00:26:30;;;;;;;23.17;17.02;;;4.70;99.90;;;;;;2071161;28;20022;-75
2021/01/26 00:27:31;;;;;;;23.45;16.92;;;4.70;99.90;;;;;;2069881;28;20068;-74
2021/01/26 00:28:31;;;;;;;25.58;18.05;;;4.70;99.90;;;;;;2070822;28;20022;-76
2021/01/26 00:29:32;;;;;;;25.55;16.60;;;4.70;99.90;;;;;;2079337;28;20044;-74
2021/01/26 00:30:35;;;;;;;22.10;15.77;;;4.70;99.90;;;;;;2070936;28;20021;-76
2021/01/26 00:31:36;;;;;;;20.17;16.13;;;4.70;99.90;;;;;;2070957;28;20044;-75
2021/01/26 00:32:36;;;;;;;24.80;16.63;;;4.70;99.90;;;;;;2079508;28;20033;-76
2021/01/26 00:33:37;;;;;;;20.80;15.27;;;4.70;99.90;;;;;;2070285;28;20057;-76
2021/01/26 00:34:37;;;;;;;29.15;16.83;;;4.70;99.90;;;;;;2071000;28;20181;-75
2021/01/26 00:35:39;;;;;;;22.10;15.50;;;4.70;99.90;;;;;;2079294;28;20568;-76
2021/01/26 00:36:39;;;;;;;20.05;16.05;;;4.70;99.90;;;;;;2070772;28;20416;-76
2021/01/26 00:37:40;;;;;;;22.25;16.65;;;4.70;99.90;;;;;;2069721;28;20097;-77
2021/01/26 00:38:41;;;;;;;19.85;14.88;;;4.70;99.90;;;;;;2078735;28;20025;-74
2021/01/26 00:39:41;;;;;;;23.05;15.48;;;4.70;99.90;;;;;;2078835;28;20026;-74
2021/01/26 00:40:42;;;;;;;17.38;14.82;;;4.70;99.90;;;;;;2079466;28;20097;-75
2021/01/26 00:41:42;;;;;;;18.92;15.60;;;4.60;99.90;;;;;;2079419;28;20025;-74
2021/01/26 00:42:44;;;;;;;20.30;14.90;;;4.60;99.90;;;;;;2079187;28;20022;-75
2021/01/26 00:43:45;;;;;;;22.25;15.52;;;4.60;99.90;;;;;;2078885;28;20048;-76
2021/01/26 00:44:45;;;;;;;18.42;15.70;;;4.60;99.90;;;;;;2079787;28;20021;-76
2021/01/26 00:45:46;;;;;;;20.15;15.13;;;4.60;99.90;;;;;;2078983;28;20079;-78
2021/01/26 00:46:46;;;;;;;23.98;14.95;;;4.60;99.90;;;;;;2078998;28;20060;-74
2021/01/26 00:47:47;;;;;;;17.30;14.13;;;4.60;99.90;;;;;;2079088;28;20037;-76
2021/01/26 00:48:48;;;;;;;18.95;14.15;;;4.60;99.90;;;;;;2070251;28;20025;-75
2021/01/26 00:49:49;;;;;;;20.05;15.85;;;4.60;99.90;;;;;;2070491;28;20064;-76
2021/01/26 00:50:49;;;;;;;18.73;14.57;;;4.60;99.90;;;;;;2070863;28;20388;-76
2021/01/26 00:51:50;;;;;;;19.35;16.70;;;4.60;99.90;;;;;;2062262;28;20026;-75
2021/01/26 00:52:50;;;;;;;20.63;14.85;;;4.60;99.90;;;;;;2062506;28;20023;-75
2021/01/26 00:53:51;;;;;;;18.92;15.00;;;4.70;99.90;;;;;;2076892;28;20108;-74
2021/01/26 00:54:52;;;;;;;17.65;15.27;;;4.60;99.90;;;;;;2079254;28;20028;-75
2021/01/26 00:55:52;;;;;;;18.23;15.30;;;4.70;99.90;;;;;;2079500;28;20033;-77
2021/01/26 00:56:53;;;;;;;23.73;16.42;;;4.70;99.90;;;;;;2079123;28;20025;-76
2021/01/26 00:57:55;;;;;;;18.10;15.32;;;4.70;99.90;;;;;;2070313;28;20030;-75
2021/01/26 00:58:55;;;;;;;20.35;16.05;;;4.70;99.90;;;;;;2070103;28;20503;-75
2021/01/26 00:59:56;;;;;;;20.40;16.13;;;4.70;99.90;;;;;;2070525;28;20022;-77
2021/01/26 01:00:57;;;;;;;22.90;16.33;;;4.70;99.90;;;;;;2070892;28;20142;-76
2021/01/26 01:01:58;;;;;;;21.40;15.50;;;4.70;99.90;;;;;;2079171;28;20061;-75
2021/01/26 01:02:59;;;;;;;22.55;16.48;;;4.70;99.90;;;;;;2070056;28;20030;-75
2021/01/26 01:03:59;;;;;;;21.67;17.25;;;4.70;99.90;;;;;;2070344;28;20492;-75
2021/01/26 01:05:00;;;;;;;20.92;16.90;;;4.70;99.90;;;;;;2074095;28;20026;-76
2021/01/26 01:06:00;;;;;;;23.40;17.98;;;4.70;99.90;;;;;;2071315;28;20374;-74
2021/01/26 01:07:01;;;;;;;21.48;16.27;;;4.70;99.90;;;;;;2078605;28;20038;-75
2021/01/26 01:08:03;;;;;;;20.58;16.98;;;4.70;99.90;;;;;;2069780;28;20109;-75
2021/01/26 01:09:04;;;;;;;24.55;17.90;;;4.70;99.90;;;;;;2070897;28;20029;-76
2021/01/26 01:10:07;;;;;;;23.38;17.05;;;4.70;99.90;;;;;;2078957;28;20053;-77
2021/01/26 01:11:07;;;;;;;23.63;16.95;;;4.70;99.90;;;;;;2079045;28;20037;-75
2021/01/26 01:12:08;;;;;;;26.50;17.02;;;4.80;99.90;;;;;;2079184;28;20088;-76
2021/01/26 01:13:10;;;;;;;23.27;17.80;;;4.80;99.90;;;;;;2079165;28;20168;-76
2021/01/26 01:14:11;;;;;;;21.80;16.50;;;4.80;99.90;;;;;;2070384;28;20061;-74
2021/01/26 01:15:12;;;;;;;21.98;17.27;;;4.80;99.90;;;;;;2070720;28;20026;-75
2021/01/26 01:16:14;;;;;;;21.30;15.98;;;4.80;99.90;;;;;;2078618;28;20400;-75
2021/01/26 01:17:14;;;;;;;21.55;16.50;;;4.70;99.90;;;;;;2070139;28;20164;-75
2021/01/26 01:18:15;;;;;;;24.30;17.23;;;4.70;99.90;;;;;;2069854;28;20084;-77
2021/01/26 01:19:16;;;;;;;21.55;15.77;;;4.70;99.90;;;;;;2062467;28;20031;-76
2021/01/26 01:20:23;;;;;;;21.00;16.02;;;4.70;99.90;;;;;;2070547;28;20080;-77
2021/01/26 01:21:23;;;;;;;24.90;15.60;;;4.70;99.90;;;;;;2070169;28;20629;-77
2021/01/26 01:22:24;;;;;;;22.15;16.08;;;4.70;99.90;;;;;;2070584;28;20022;-77
2021/01/26 01:23:24;;;;;;;21.25;16.02;;;4.70;99.90;;;;;;2079015;28;20112;-77
2021/01/26 01:24:25;;;;;;;20.48;15.35;;;4.70;99.90;;;;;;2078946;28;20109;-78
2021/01/26 01:25:26;;;;;;;19.60;14.45;;;4.70;99.90;;;;;;2070535;28;20030;-77
2021/01/26 01:26:26;;;;;;;18.38;14.80;;;4.70;99.90;;;;;;2062566;28;20057;-76
2021/01/26 01:27:27;;;;;;;17.45;14.23;;;4.70;99.90;;;;;;2069971;28;20045;-75
2021/01/26 01:28:28;;;;;;;19.25;14.23;;;4.70;99.90;;;;;;2078834;28;20378;-78
2021/01/26 01:29:31;;;;;;;21.27;15.07;;;4.70;99.90;;;;;;2079133;28;20025;-77
2021/01/26 01:30:33;;;;;;;18.15;13.25;;;4.70;99.90;;;;;;2079400;28;20493;-76
2021/01/26 01:31:34;;;;;;;16.73;14.10;;;4.70;99.90;;;;;;2079116;28;20128;-76
2021/01/26 01:32:35;;;;;;;16.65;14.10;;;4.70;99.90;;;;;;2070417;28;20466;-75
2021/01/26 01:33:35;;;;;;;18.88;14.68;;;4.70;99.90;;;;;;2070555;28;20030;-77
2021/01/26 01:34:36;;;;;;;20.10;14.93;;;4.70;99.90;;;;;;2079746;28;20029;-79
2021/01/26 01:35:36;;;;;;;19.73;14.73;;;4.70;99.90;;;;;;2078166;28;20029;-77
2021/01/26 01:36:38;;;;;;;17.45;14.20;;;4.70;99.90;;;;;;2079270;28;20489;-77
2021/01/26 01:37:38;;;;;;;20.63;13.18;;;4.70;99.90;;;;;;2078425;28;20907;-76
2021/01/26 01:38:39;;;;;;;20.27;13.63;;;4.70;99.90;;;;;;2078920;28;20024;-75
2021/01/26 01:39:40;;;;;;;18.13;13.43;;;4.70;99.90;;;;;;2071739;28;20105;-75
2021/01/26 01:40:40;;;;;;;19.95;13.43;;;4.70;99.90;;;;;;2072228;28;20363;-76
2021/01/26 01:41:41;;;;;;;20.08;13.88;;;4.70;99.90;;;;;;2081110;28;20430;-78
2021/01/26 01:42:41;;;;;;;20.95;14.85;;;4.70;99.90;;;;;;2079984;28;20125;-77
2021/01/26 01:43:42;;;;;;;18.17;13.75;;;4.80;99.90;;;;;;2078962;28;20469;-77
2021/01/26 01:44:43;;;;;;;21.10;14.90;;;4.70;99.90;;;;;;2079317;28;20469;-78
2021/01/26 01:45:43;;;;;;;22.83;14.40;;;4.80;99.90;;;;;;2078924;28;20029;-78
2021/01/26 01:46:51;;;;;;;20.90;14.55;;;4.70;99.90;;;;;;2078549;28;20033;-79
2021/01/26 01:48:01;;;;;;;19.02;14.10;;;4.70;99.90;;;;;;2078561;28;20037;-78
2021/01/26 01:49:04;;;;;;;24.08;15.38;;;4.80;99.90;;;;;;2079419;28;20032;-78
2021/01/26 01:50:10;;;;;;;19.92;14.38;;;4.70;99.90;;;;;;2078754;28;20029;-79
2021/01/26 01:51:15;;;;;;;20.90;14.80;;;4.70;99.90;;;;;;2079431;28;20018;-77
2021/01/26 01:52:23;;;;;;;21.30;15.52;;;4.70;99.90;;;;;;2078895;28;20028;-78
2021/01/26 01:53:33;;;;;;;20.75;15.18;;;4.70;99.90;;;;;;2079071;28;20128;-77
2021/01/26 01:54:39;;;;;;;17.45;13.77;;;4.70;99.90;;;;;;2079284;28;20028;-76
2021/01/26 01:55:47;;;;;;;20.88;14.73;;;4.70;99.90;;;;;;2079293;28;20505;-75
2021/01/26 01:57:01;;;;;;;20.20;14.73;;;4.70;99.90;;;;;;2078600;28;20041;-75
2021/01/26 01:58:24;;;;;;;22.17;15.18;;;4.70;99.90;;;;;;2078450;28;20369;-77
2021/01/26 01:59:30;;;;;;;20.30;14.73;;;4.70;99.90;;;;;;2070473;28;20092;-77
2021/01/26 02:00:34;;;;;;;21.90;14.68;;;4.70;99.90;;;;;;2071286;28;20440;-76
2021/01/26 02:01:35;;;;;;;19.73;13.77;;;4.70;99.90;;;;;;2070481;28;20529;-76
2021/01/26 02:02:44;;;;;;;22.33;14.50;;;4.80;99.90;;;;;;2070501;28;20026;-77
2021/01/26 02:03:52;;;;;;;17.85;13.45;;;4.80;99.90;;;;;;2071259;28;20022;-75
2021/01/26 02:04:54;;;;;;;19.38;13.65;;;4.70;99.90;;;;;;2079081;28;20048;-75
2021/01/26 02:05:57;;;;;;;15.43;13.43;;;4.70;99.90;;;;;;2078709;28;20037;-79
2021/01/26 02:06:58;;;;;;;21.63;13.98;;;4.70;99.90;;;;;;2078608;28;20069;-76
2021/01/26 02:07:59;;;;;;;19.75;14.18;;;4.70;99.90;;;;;;2078513;28;20037;-76
2021/01/26 02:09:08;;;;;;;18.13;13.25;;;4.70;99.90;;;;;;2079048;28;20385;-76
2021/01/26 02:10:19;;;;;;;17.23;12.95;;;4.80;99.90;;;;;;2079045;28;20045;-76
2021/01/26 02:11:20;;;;;;;19.73;12.82;;;4.80;99.90;;;;;;2075367;28;20128;-77
2021/01/26 02:12:21;;;;;;;17.50;13.32;;;4.70;99.90;;;;;;2070179;28;20030;-75
2021/01/26 02:13:22;;;;;;;20.20;13.20;;;4.80;99.90;;;;;;2069006;28;20038;-77
2021/01/26 02:14:24;;;;;;;19.77;13.43;;;4.80;99.90;;;;;;2079112;28;20050;-76
2021/01/26 02:15:25;;;;;;;18.08;13.25;;;4.80;99.90;;;;;;2079121;28;20044;-75
2021/01/26 02:16:28;;;;;;;16.52;12.60;;;4.80;99.90;;;;;;2078939;28;20040;-76
2021/01/26 02:18:17;;;;;;;20.42;13.13;;;4.80;99.90;;;;;;2069307;28;20065;-77
2021/01/26 02:19:30;;;;;;;17.15;11.75;;;4.80;99.90;;;;;;2077148;28;20393;-76
2021/01/26 02:20:52;;;;;;;20.23;13.43;;;4.80;99.90;;;;;;2079475;28;20029;-79
2021/01/26 02:22:16;;;;;;;17.08;12.32;;;4.80;99.90;;;;;;2070677;28;20068;-77
2021/01/26 02:23:39;;;;;;;19.75;12.90;;;4.70;99.90;;;;;;2073565;28;20026;-75
2021/01/26 02:25:11;;;;;;;19.58;12.98;;;4.70;99.90;;;;;;2078966;28;20021;-75
2021/01/26 02:26:46;;;;;;;21.17;13.02;;;4.80;99.90;;;;;;2076522;28;20029;-75
2021/01/26 02:27:58;;;;;;;20.42;12.07;;;4.70;99.90;;;;;;2075940;28;20492;-75
2021/01/26 02:29:06;;;;;;;15.02;12.52;;;4.70;99.90;;;;;;2078747;28;20581;-75
2021/01/26 02:30:12;;;;;;;15.88;12.43;;;4.70;99.90;;;;;;2079316;28;20083;-75
2021/01/26 02:31:37;;;;;;;20.35;13.73;;;4.70;99.90;;;;;;2078944;28;20025;-76
2021/01/26 02:33:11;;;;;;;20.70;12.73;;;4.80;99.90;;;;;;2079197;28;20099;-76
2021/01/26 02:34:44;;;;;;;16.85;12.38;;;4.70;99.90;;;;;;2078510;28;20040;-77
2021/01/26 02:35:44;;;;;;;16.60;11.18;;;4.70;99.90;;;;;;2078811;28;20032;-75
2021/01/26 02:36:54;;;;;;;18.67;11.93;;;4.70;99.90;;;;;;2078449;28;20045;-77
2021/01/26 02:38:31;;;;;;;17.43;13.03;;;4.80;99.90;;;;;;2070397;28;20025;-77
2021/01/26 02:39:38;;;;;;;17.27;11.75;;;4.70;99.90;;;;;;2070918;28;20268;-76
2021/01/26 02:40:46;;;;;;;17.27;11.93;;;4.70;99.90;;;;;;2075648;28;20032;-75
2021/01/26 02:42:20;;;;;;;26.55;10.93;;;4.80;99.90;;;;;;2078654;28;20108;-76
2021/01/26 02:43:41;;;;;;;19.45;10.73;;;4.80;99.90;;;;;;2078983;28;20102;-76
2021/01/26 02:45:17;;;;;;;16.13;10.32;;;4.70;99.90;;;;;;2079477;28;20027;-77
2021/01/26 02:46:25;;;;;;;18.27;10.50;;;4.70;99.90;;;;;;2074017;28;20022;-75
2021/01/26 02:47:42;;;;;;;22.05;10.80;;;4.70;99.90;;;;;;2069766;28;20025;-75
2021/01/26 02:48:45;;;;;;;16.05;10.35;;;4.80;99.90;;;;;;2073818;28;20145;-76
2021/01/26 02:49:58;;;;;;;15.50;10.57;;;4.80;99.90;;;;;;2080541;28;20132;-76
2021/01/26 02:51:27;;;;;;;20.08;11.45;;;4.80;99.90;;;;;;2080834;28;20029;-74
2021/01/26 02:52:37;;;;;;;14.13;10.15;;;4.90;99.90;;;;;;2080496;28;20451;-75
2021/01/26 02:54:03;;;;;;;18.80;10.88;;;4.80;99.90;;;;;;2080237;28;20021;-76
2021/01/26 02:55:10;;;;;;;13.65;9.98;;;4.80;99.90;;;;;;2080070;28;20108;-76
2021/01/26 02:56:38;;;;;;;21.10;11.00;;;4.80;99.90;;;;;;2080194;28;20056;-75
2021/01/26 02:57:53;;;;;;;18.15;10.32;;;4.90;99.90;;;;;;2071701;28;20030;-75
2021/01/26 02:58:58;;;;;;;16.08;9.95;;;4.90;99.90;;;;;;2079923;28;20117;-75
2021/01/26 03:00:16;;;;;;;17.30;11.10;;;4.90;99.90;;;;;;2080328;28;20112;-74
2021/01/26 03:01:17;;;;;;;15.73;9.88;;;4.90;99.90;;;;;;2081840;28;20041;-75
2021/01/26 03:02:24;;;;;;;15.35;10.05;;;4.90;99.90;;;;;;2081583;28;20017;-75
2021/01/26 03:03:50;;;;;;;14.93;9.77;;;4.90;99.90;;;;;;2081641;28;20214;-76
2021/01/26 03:05:03;;;;;;;14.50;9.60;;;4.90;99.90;;;;;;2081556;28;20029;-76
2021/01/26 03:06:29;;;;;;;17.55;10.35;;;4.90;99.90;;;;;;2081433;28;20139;-74
2021/01/26 03:07:42;;;;;;;16.65;9.25;;;4.90;99.90;;;;;;2081108;28;20108;-77
2021/01/26 03:09:21;;;;;;;17.55;10.32;;;4.90;99.90;;;;;;2081224;28;20026;-75
2021/01/26 03:10:27;;;;;;;16.17;9.98;;;4.90;99.90;;;;;;2081350;28;20103;-76
2021/01/26 03:11:42;;;;;;;15.07;10.68;;;4.90;99.90;;;;;;2081681;28;20064;-76
2021/01/26 03:12:50;;;;;;;19.40;10.60;;;4.90;99.90;;;;;;2073082;28;20505;-77
2021/01/26 03:14:05;;;;;;;13.63;9.90;;;4.90;99.90;;;;;;2073982;28;20642;-75
2021/01/26 03:15:17;;;;;;;16.55;9.75;;;4.90;99.90;;;;;;2081680;28;20533;-76
2021/01/26 03:16:21;;;;;;;13.70;10.43;;;4.90;99.90;;;;;;2081310;28;20075;-76
2021/01/26 03:17:54;;;;;;;15.30;10.85;;;4.90;99.90;;;;;;2080925;28;20103;-77
2021/01/26 03:19:04;;;;;;;15.07;10.55;;;4.90;99.90;;;;;;2068057;28;20502;-74
2021/01/26 03:20:14;;;;;;;;;;;4.90;99.90;;;;;;2073882;28;20654;-77
2021/01/26 03:21:18;;;;;;;19.35;9.27;;;4.90;99.90;;;;;;2078338;28;19912;-74
2021/01/26 03:22:23;;;;;;;16.98;9.70;;;4.90;99.90;;;;;;2081600;28;20443;-78
2021/01/26 03:23:40;;;;;;;15.30;9.70;;;4.90;99.90;;;;;;2081360;28;20465;-75
2021/01/26 03:24:42;;;;;;;16.02;10.63;;;4.90;99.90;;;;;;2081387;28;20109;-77
2021/01/26 03:25:51;;;;;;;17.40;10.13;;;5.00;99.90;;;;;;2081005;28;20115;-76
2021/01/26 03:26:52;;;;;;;12.48;9.65;;;5.00;99.90;;;;;;2081023;28;20021;-75
2021/01/26 03:27:57;;;;;;;14.68;10.30;;;5.00;99.90;;;;;;2081225;28;20102;-74
2021/01/26 03:29:00;;;;;;;18.95;10.35;;;5.00;99.90;;;;;;2081088;28;20021;-78
2021/01/26 03:30:04;;;;;;;17.13;10.88;;;5.10;99.90;;;;;;2080327;28;20026;-77
2021/01/26 03:31:07;;;;;;;24.38;10.23;;;5.10;99.90;;;;;;2080963;28;20029;-76
2021/01/26 03:32:13;;;;;;;17.75;9.07;;;5.10;99.90;;;;;;2081413;28;20102;-76
2021/01/26 03:33:24;;;;;;;19.02;10.13;;;5.10;99.90;;;;;;2081572;28;20155;-76
2021/01/26 03:34:24;;;;;;;21.65;10.38;;;5.20;99.90;;;;;;2080967;28;21004;-75
2021/01/26 03:35:25;;;;;;;20.70;10.73;;;5.20;99.90;;;;;;2081502;28;20116;-75
2021/01/26 03:36:26;;;;;;;18.10;10.07;;;5.10;99.90;;;;;;2080967;28;20462;-76
2021/01/26 03:37:26;;;;;;;16.25;9.13;;;5.20;99.90;;;;;;2081012;28;20473;-77
2021/01/26 03:38:29;;;;;;;17.63;8.80;;;5.20;99.90;;;;;;2080867;28;20029;-78
2021/01/26 03:39:29;;;;;;;12.93;7.50;;;5.20;99.90;;;;;;2081209;28;20025;-77
2021/01/26 03:40:30;;;;;;;17.67;8.50;;;5.20;99.90;;;;;;2081216;28;20093;-76
2021/01/26 03:41:31;;;;;;;12.02;7.38;;;5.20;99.90;;;;;;2081450;28;20097;-76
2021/01/26 03:42:33;;;;;;;14.07;8.15;;;5.20;99.90;;;;;;2081182;28;20120;-74
2021/01/26 03:43:34;;;;;;;16.13;7.80;;;5.20;99.90;;;;;;2080955;28;20025;-78
2021/01/26 03:44:35;;;;;;;14.48;7.95;;;5.20;99.90;;;;;;2081111;28;20017;-76
2021/01/26 03:45:36;;;;;;;15.68;7.47;;;5.20;99.90;;;;;;2081279;28;20017;-75
2021/01/26 03:46:45;;;;;;;13.00;8.27;;;5.20;99.90;;;;;;2080660;28;20022;-77
2021/01/26 03:47:54;;;;;;;17.40;8.20;;;5.20;99.90;;;;;;2081406;28;20036;-75
2021/01/26 03:49:17;;;;;;;16.67;8.60;;;5.20;99.90;;;;;;2081067;28;20032;-77
2021/01/26 03:50:51;;;;;;;16.92;7.90;;;5.20;99.90;;;;;;2080484;28;20026;-76
2021/01/26 03:52:03;;;;;;;12.60;7.38;;;5.20;99.90;;;;;;2067786;28;20068;-77
2021/01/26 03:53:44;;;;;;;17.23;8.20;;;5.20;99.90;;;;;;2074064;28;20469;-74
2021/01/26 03:55:22;;;;;;;16.38;8.13;;;5.20;99.90;;;;;;2046948;29;20043;-76
2021/01/26 03:56:44;;;;;;;14.27;7.13;;;5.20;99.90;;;;;;2063497;28;20048;-76
2021/01/26 03:57:53;;;;;;;16.73;8.02;;;5.20;99.90;;;;;;2081230;28;20032;-76
2021/01/26 03:59:01;;;;;;;15.45;8.55;;;5.20;99.90;;;;;;2080425;28;20522;-75
2021/01/26 04:00:29;;;;;;;13.30;6.82;;;5.20;99.90;;;;;;2081117;28;20053;-77
2021/01/26 04:01:40;;;;;;;12.73;7.35;;;5.20;99.90;;;;;;2081428;28;20091;-74
2021/01/26 04:02:56;;;;;;;13.13;8.35;;;5.20;99.90;;;;;;2071547;28;20102;-74
2021/01/26 04:04:08;;;;;;;11.07;7.05;;;5.20;99.90;;;;;;2073209;28;20629;-76
2021/01/26 04:05:39;;;;;;;12.50;7.47;;;5.20;99.90;;;;;;2079750;28;20026;-76
2021/01/26 04:06:48;;;;;;;15.55;7.07;;;5.20;99.90;;;;;;2066389;28;20054;-74
2021/01/26 04:07:56;;;;;;;17.35;7.20;;;5.20;99.90;;;;;;2071196;28;20061;-76
2021/01/26 04:09:05;;;;;;;11.23;6.75;;;5.20;99.90;;;;;;2072366;28;20117;-75
2021/01/26 04:10:21;;;;;;;14.60;7.35;;;5.20;99.90;;;;;;2079875;28;20036;-77
2021/01/26 04:11:45;;;;;;;11.95;7.13;;;5.30;99.90;;;;;;2071497;28;20037;-75
2021/01/26 04:12:51;;;;;;;13.70;7.78;;;5.20;99.90;;;;;;2074851;28;20378;-77
2021/01/26 04:13:59;;;;;;;13.93;8.07;;;5.20;99.90;;;;;;2079734;28;20025;-75
2021/01/26 04:15:09;;;;;;;14.57;7.90;;;5.30;99.90;;;;;;2079678;28;20523;-76
2021/01/26 04:16:12;;;;;;;11.40;6.88;;;5.30;99.90;;;;;;2079063;28;20025;-75
2021/01/26 04:17:21;;;;;;;12.10;7.43;;;5.30;99.90;;;;;;2079706;28;20504;-77
2021/01/26 04:18:36;;;;;;;13.00;8.20;;;5.30;99.90;;;;;;2079461;28;20511;-76
2021/01/26 04:20:01;;;;;;;11.38;7.20;;;5.30;99.90;;;;;;2079797;28;20024;-75
2021/01/26 04:21:02;;;;;;;9.75;7.07;;;5.30;99.90;;;;;;2071064;28;20030;-76
2021/01/26 04:22:06;;;;;;;15.23;6.75;;;5.30;99.90;;;;;;2071056;28;20053;-75
2021/01/26 04:23:08;;;;;;;14.10;7.07;;;5.30;99.90;;;;;;2079931;28;20033;-76
2021/01/26 04:24:09;;;;;;;9.85;6.57;;;5.30;99.90;;;;;;2073297;28;20379;-76
2021/01/26 04:25:32;;;;;;;15.60;7.18;;;5.40;99.90;;;;;;2079761;28;20079;-77
2021/01/26 04:26:35;;;;;;;9.48;6.43;;;5.40;99.90;;;;;;2071613;28;20100;-74
2021/01/26 04:27:35;;;;;;;12.60;6.30;;;5.40;99.90;;;;;;2075043;28;20025;-77
2021/01/26 04:28:44;;;;;;;10.57;6.28;;;5.40;99.90;;;;;;2070408;28;20383;-77
2021/01/26 04:29:45;;;;;;;11.45;5.82;;;5.40;99.90;;;;;;2072415;28;20018;-76
2021/01/26 04:30:45;;;;;;;16.50;6.18;;;5.40;99.90;;;;;;2079582;28;20415;-77
2021/01/26 04:31:46;;;;;;;14.10;7.47;;;5.40;99.90;;;;;;2080032;28;20381;-76
2021/01/26 04:32:58;;;;;;;9.73;5.50;;;5.40;99.90;;;;;;2070990;28;20034;-78
2021/01/26 04:33:59;;;;;;;11.30;5.47;;;5.40;99.90;;;;;;2063806;28;20928;-75
2021/01/26 04:34:59;;;;;;;9.57;4.97;;;5.40;99.90;;;;;;2062549;28;20121;-77
2021/01/26 04:36:01;;;;;;;23.08;6.70;;;5.40;99.90;;;;;;2071049;28;20096;-77
2021/01/26 04:37:01;;;;;;;9.32;5.72;;;5.40;99.90;;;;;;2079207;28;20033;-76
2021/01/26 04:38:03;;;;;;;10.80;5.25;;;5.40;99.90;;;;;;2079299;28;20049;-76
2021/01/26 04:39:04;;;;;;;11.88;5.00;;;5.40;99.90;;;;;;2079603;28;20492;-76
2021/01/26 04:40:06;;;;;;;11.07;5.30;;;5.50;99.90;;;;;;2079392;28;20026;-74
2021/01/26 04:41:31;;;;;;;9.68;4.70;;;5.50;99.90;;;;;;2070654;28;20022;-76
2021/01/26 04:42:38;;;;;;;14.95;4.82;;;5.50;99.90;;;;;;2074168;28;20014;-75
2021/01/26 04:44:12;;;;;;;10.00;4.60;;;5.40;99.90;;;;;;2079553;28;20128;-76
2021/01/26 04:45:16;;;;;;;11.82;4.65;;;5.40;99.90;;;;;;2079269;28;20025;-74
2021/01/26 04:46:52;;;;;;;10.55;4.20;;;5.40;99.90;;;;;;2079303;28;20021;-75
2021/01/26 04:48:05;;;;;;;10.77;4.30;;;5.30;99.90;;;;;;2070709;28;20455;-75
2021/01/26 04:49:25;;;;;;;8.93;4.13;;;5.40;99.90;;;;;;2072378;28;20493;-76
2021/01/26 04:50:53;;;;;;;9.30;4.35;;;5.30;99.90;;;;;;2079669;28;20384;-74
2021/01/26 04:52:28;;;;;;;12.40;4.38;;;5.30;99.90;;;;;;2079680;28;20025;-75
2021/01/26 04:53:35;;;;;;;9.45;4.35;;;5.30;99.90;;;;;;2079762;28;20872;-75
2021/01/26 04:54:45;;;;;;;10.23;4.03;;;5.30;99.90;;;;;;2079458;28;20397;-74
2021/01/26 04:56:08;;;;;;;8.85;3.92;;;5.40;99.90;;;;;;2070693;28;20026;-76
2021/01/26 04:57:24;;;;;;;10.82;4.20;;;5.30;99.90;;;;;;2068682;28;20131;-76
2021/01/26 04:58:39;;;;;;;8.07;3.90;;;5.40;99.90;;;;;;2079047;28;20108;-75
2021/01/26 04:59:42;;;;;;;9.75;3.92;;;5.40;99.90;;;;;;2079287;28;20100;-75
2021/01/26 05:01:11;;;;;;;10.25;4.00;;;5.40;99.90;;;;;;2079251;28;20457;-75
2021/01/26 05:02:45;;;;;;;6.53;4.47;;;5.40;99.90;;;;;;2070508;28;20026;-76
2021/01/26 05:03:59;;;;;;;8.13;3.72;;;5.30;99.90;;;;;;2075036;28;20400;-76
2021/01/26 05:05:11;;;;;;;9.85;4.35;;;5.30;99.90;;;;;;2079321;28;20358;-78
2021/01/26 05:06:17;;;;;;;7.40;3.85;;;5.40;99.90;;;;;;2078971;28;20045;-76
2021/01/26 05:07:21;;;;;;;13.38;4.63;;;5.40;99.90;;;;;;2070056;28;20028;-78
2021/01/26 05:08:29;;;;;;;8.27;4.95;;;5.40;99.90;;;;;;2070750;28;20029;-74
2021/01/26 05:09:38;;;;;;;11.07;4.25;;;5.40;99.90;;;;;;2079402;28;20068;-75
2021/01/26 05:10:41;;;;;;;7.85;4.22;;;5.40;99.90;;;;;;2078828;28;20128;-74
2021/01/26 05:11:44;;;;;;;8.30;4.10;;;5.40;99.90;;;;;;2079207;28;20028;-76
2021/01/26 05:12:54;;;;;;;11.75;4.63;;;5.40;99.90;;;;;;2079493;28;20023;-77
2021/01/26 05:13:58;;;;;;;11.93;4.43;;;5.40;99.90;;;;;;2079313;28;20026;-77
2021/01/26 05:15:01;;;;;;;9.88;4.00;;;5.40;99.90;;;;;;2070420;28;20030;-78
2021/01/26 05:16:08;;;;;;;10.57;4.43;;;5.40;99.90;;;;;;2070435;28;20076;-76
2021/01/26 05:17:13;;;;;;;13.43;5.15;;;5.40;99.90;;;;;;2068623;28;20045;-74
2021/01/26 05:18:23;;;;;;;9.82;4.32;;;5.40;99.90;;;;;;2070772;28;20057;-78
2021/01/26 05:19:38;;;;;;;10.02;4.35;;;5.50;99.90;;;;;;2079705;28;20465;-75
2021/01/26 05:20:44;;;;;;;11.52;4.68;;;5.50;99.90;;;;;;2079146;28;20025;-74
2021/01/26 05:22:07;;;;;;;12.10;4.38;;;5.40;99.90;;;;;;2079740;28;20021;-76
2021/01/26 05:23:12;;;;;;;11.18;4.53;;;5.50;99.90;;;;;;2079338;28;20599;-76
2021/01/26 05:24:31;;;;;;;9.05;4.63;;;5.40;99.90;;;;;;2078878;28;20030;-76
2021/01/26 05:25:31;;;;;;;12.65;4.30;;;5.40;99.90;;;;;;2079381;28;20126;-77
2021/01/26 05:26:32;;;;;;;11.00;4.22;;;5.40;99.90;;;;;;2078786;28;20381;-77
2021/01/26 05:27:33;;;;;;;8.98;4.50;;;5.40;99.90;;;;;;2070119;28;20073;-75
2021/01/26 05:28:33;;;;;;;13.35;4.72;;;5.40;99.90;;;;;;2069963;28;20034;-76
2021/01/26 05:29:35;;;;;;;12.68;4.88;;;5.40;99.90;;;;;;2076474;28;20449;-76
2021/01/26 05:30:38;;;;;;;14.50;4.35;;;5.50;99.90;;;;;;2077222;28;20026;-76
2021/01/26 05:31:40;;;;;;;14.18;5.05;;;5.50;99.90;;;;;;2079383;28;20029;-77
2021/01/26 05:32:44;;;;;;;10.25;4.32;;;5.50;99.90;;;;;;2068804;28;20061;-75
2021/01/26 05:33:45;;;;;;;8.70;3.83;;;5.50;99.90;;;;;;2067531;28;20057;-75
2021/01/26 05:34:46;;;;;;;9.50;4.50;;;5.50;99.90;;;;;;2078519;28;20076;-76
2021/01/26 05:35:56;;;;;;;17.15;4.80;;;5.50;99.90;;;;;;2077750;28;20412;-76
2021/01/26 05:36:57;;;;;;;10.00;4.28;;;5.50;99.90;;;;;;2075045;28;20062;-76
2021/01/26 05:37:58;;;;;;;8.63;4.13;;;5.50;99.90;;;;;;2079349;28;20108;-75
2021/01/26 05:38:58;;;;;;;11.38;4.25;;;5.50;99.90;;;;;;2078597;28;20139;-75
2021/01/26 05:40:12;;;;;;;12.57;4.13;;;5.50;99.90;;;;;;2079033;28;20036;-75
2021/01/26 05:41:14;;;;;;;10.65;3.80;;;5.50;99.90;;;;;;2062037;28;20619;-78
2021/01/26 05:42:16;;;;;;;12.25;4.28;;;5.50;99.90;;;;;;2067437;28;20030;-75
2021/01/26 05:43:20;;;;;;;9.40;4.22;;;5.50;99.90;;;;;;2079410;28;20974;-76
2021/01/26 05:44:21;;;;;;;14.50;4.40;;;5.50;99.90;;;;;;2078744;28;20362;-75
2021/01/26 05:45:30;;;;;;;11.82;4.03;;;5.50;99.90;;;;;;2079201;28;20032;-74
2021/01/26 05:46:37;;;;;;;13.40;4.10;;;5.50;99.90;;;;;;2078455;28;20030;-74
2021/01/26 05:47:39;;;;;;;10.60;3.65;;;5.50;99.90;;;;;;2077611;28;20416;-77
2021/01/26 05:48:50;;;;;;;10.75;3.90;;;5.50;99.90;;;;;;2081144;28;20484;-75